Attleboro Falls, Massachusetts
Current Conditions -  °F | °C
As of 12:55 AM on Thursday 27 Nov 2014 (Local Time) from KSFZ Reporting Station
Overcast Overcast  
Wind Chill: 23°   Ceiling: 1600
Heat Index: 32°   Visibility: 5mi
Dew Point: 25°   Wind: 12mph
Humidity: 75%   Direction: 350°N
Pressure: 29.68"   Gusts: 23mph
Location:  41.97°N, 71.32°W
Report Text: KSFZ 270555Z 35010G20KT 5SM SCT008 OVC016 00/M04 A2968 RMK AO1 P0003 60037 10010 20000 52014
Loading
Personal Weather Stations






























Interactive Weather Map New forecast layout! Learn more

10-Day Weather Forecast

Advertisements
Track Severe Weather on mobile